Time;durP1;ratioP1;P1;durP2;ratioP2;P2;SDS_P1;SDS_P2;PMS_P1;PMS_P2;Temp;Humidity;BMP_temperature;BMP_pressure;BME280_temperature;BME280_humidity;BME280_pressure;Samples;Min_cycle;Max_cycle;Signal;HPM_P1;HPM_P2
2022/11/01 00:01:51;;;;;;;54.22;36.53;;;14.20;99.90;;;;;;5091264;28;20198;-70
2022/11/01 00:04:18;;;;;;;54.35;37.00;;;14.20;99.90;;;;;;5092531;28;20557;-70
2022/11/01 00:06:43;;;;;;;58.58;36.63;;;14.20;99.90;;;;;;5078215;28;20629;-71
2022/11/01 00:09:09;;;;;;;56.08;36.03;;;14.20;99.90;;;;;;5095896;28;20282;-72
2022/11/01 00:11:35;;;;;;;55.00;37.22;;;14.20;99.90;;;;;;5071432;28;20259;-72
2022/11/01 00:14:01;;;;;;;59.10;36.67;;;14.20;99.90;;;;;;5074094;28;20198;-72
2022/11/01 00:16:27;;;;;;;53.10;35.60;;;14.20;99.90;;;;;;5100069;28;20166;-72
2022/11/01 00:18:53;;;;;;;55.88;36.88;;;14.20;99.90;;;;;;5090454;28;20221;-72
2022/11/01 00:21:19;;;;;;;50.42;35.97;;;14.10;99.90;;;;;;5088618;28;20545;-72
2022/11/01 00:23:46;;;;;;;50.40;35.38;;;14.20;99.90;;;;;;5088379;28;20198;-72
2022/11/01 00:26:16;;;;;;;57.35;37.65;;;14.10;99.90;;;;;;5096818;28;20617;-71
2022/11/01 00:28:41;;;;;;;51.42;35.47;;;14.20;99.90;;;;;;5094379;28;20169;-72
2022/11/01 00:31:07;;;;;;;49.05;34.00;;;14.20;99.90;;;;;;5085715;28;20579;-72
2022/11/01 00:33:32;;;;;;;54.20;34.97;;;14.20;99.90;;;;;;5097914;28;20206;-72
2022/11/01 00:36:01;;;;;;;53.80;33.88;;;14.20;99.90;;;;;;5076443;28;20859;-72
2022/11/01 00:38:27;;;;;;;52.38;35.40;;;14.10;99.90;;;;;;5091093;28;20703;-72
2022/11/01 00:40:54;;;;;;;52.47;35.45;;;14.20;99.90;;;;;;5090539;28;20190;-72
2022/11/01 00:43:19;;;;;;;52.38;35.17;;;14.20;99.90;;;;;;5097613;28;20158;-72
2022/11/01 00:45:45;;;;;;;55.60;35.75;;;14.20;99.90;;;;;;5088311;28;20314;-72
2022/11/01 00:48:12;;;;;;;53.83;34.03;;;14.10;99.90;;;;;;5084352;28;20210;-72
2022/11/01 00:50:38;;;;;;;52.53;34.90;;;14.10;99.90;;;;;;5068140;28;20213;-72
2022/11/01 00:53:04;;;;;;;47.88;33.63;;;14.20;99.90;;;;;;5092309;28;20198;-72
2022/11/01 00:55:29;;;;;;;47.15;33.17;;;14.10;99.90;;;;;;5083643;28;20189;-71
2022/11/01 00:57:55;;;;;;;49.53;32.63;;;14.20;99.90;;;;;;5088245;28;20206;-72
2022/11/01 01:00:21;;;;;;;51.17;33.53;;;14.20;99.90;;;;;;5096422;28;20699;-72
2022/11/01 01:02:46;;;;;;;51.85;34.20;;;14.20;99.90;;;;;;5088024;28;20210;-71
2022/11/01 01:05:12;;;;;;;50.58;32.90;;;14.10;99.90;;;;;;5088283;28;20209;-71
2022/11/01 01:07:37;;;;;;;48.95;33.58;;;14.10;99.90;;;;;;5093750;28;20522;-72
2022/11/01 01:10:05;;;;;;;50.33;33.67;;;14.00;99.90;;;;;;5091751;28;20260;-72
2022/11/01 01:12:30;;;;;;;47.88;34.67;;;14.10;99.90;;;;;;5085629;28;20206;-72
2022/11/01 01:14:56;;;;;;;52.65;33.90;;;14.00;99.90;;;;;;5088228;28;20224;-72
2022/11/01 01:17:22;;;;;;;50.55;34.70;;;14.00;99.90;;;;;;5078541;28;20288;-72
2022/11/01 01:19:47;;;;;;;47.20;32.92;;;14.00;99.90;;;;;;5088083;28;20170;-71
2022/11/01 01:22:13;;;;;;;50.55;34.33;;;13.90;99.90;;;;;;5084752;28;20293;-72
2022/11/01 01:24:44;;;;;;;54.28;34.35;;;13.90;99.90;;;;;;5093073;28;20271;-72
2022/11/01 01:27:11;;;;;;;44.78;33.65;;;13.90;99.90;;;;;;5092670;28;20340;-71
2022/11/01 01:29:40;;;;;;;53.08;35.25;;;14.00;99.90;;;;;;5086187;28;20699;-72
2022/11/01 01:32:07;;;;;;;54.22;34.88;;;13.90;99.90;;;;;;5090847;28;20285;-72
2022/11/01 01:34:32;;;;;;;54.85;34.90;;;14.00;99.90;;;;;;5096787;28;20209;-72
2022/11/01 01:36:58;;;;;;;50.45;34.45;;;14.00;99.90;;;;;;5074685;28;20195;-72
2022/11/01 01:39:23;;;;;;;48.13;33.35;;;14.00;99.90;;;;;;5084376;28;20684;-71
2022/11/01 01:41:55;;;;;;;47.90;32.00;;;14.00;99.90;;;;;;5092581;28;20251;-72
2022/11/01 01:44:46;;;;;;;45.25;32.35;;;14.00;99.90;;;;;;5085004;28;20197;-72
2022/11/01 01:47:18;;;;;;;43.92;31.92;;;14.00;99.90;;;;;;5086452;28;20206;-71
2022/11/01 01:49:45;;;;;;;44.70;32.53;;;14.00;99.90;;;;;;5086253;28;20245;-72
2022/11/01 01:52:10;;;;;;;47.13;31.52;;;14.00;99.90;;;;;;5094094;28;20198;-71
2022/11/01 01:54:36;;;;;;;43.55;31.10;;;14.00;99.90;;;;;;5074265;28;20296;-72
2022/11/01 01:57:04;;;;;;;46.38;30.05;;;14.00;99.90;;;;;;5072835;28;20214;-72
2022/11/01 01:59:30;;;;;;;44.45;30.58;;;14.00;99.90;;;;;;5096981;28;20205;-72
2022/11/01 02:01:57;;;;;;;43.55;31.58;;;13.90;99.90;;;;;;5089124;28;20562;-71
2022/11/01 02:04:38;;;;;;;47.00;33.33;;;13.90;99.90;;;;;;5090640;28;20505;-72
2022/11/01 02:07:04;;;;;;;45.78;32.10;;;13.90;99.90;;;;;;5089251;28;20654;-71
2022/11/01 02:09:31;;;;;;;48.22;32.65;;;13.90;99.90;;;;;;5075093;28;20289;-72
2022/11/01 02:11:57;;;;;;;43.47;31.95;;;13.90;99.90;;;;;;5086147;28;20202;-72
2022/11/01 02:14:24;;;;;;;46.13;33.05;;;13.90;99.90;;;;;;5087269;28;20683;-71
2022/11/01 02:17:11;;;;;;;47.63;31.95;;;13.90;99.90;;;;;;5094260;28;20198;-72
2022/11/01 02:20:19;;;;;;;56.95;34.00;;;13.80;99.90;;;;;;5066753;28;20287;-72
2022/11/01 02:23:15;;;;;;;48.47;34.10;;;13.90;99.90;;;;;;5083728;28;20199;-72
2022/11/01 02:26:34;;;;;;;49.63;31.83;;;13.90;99.90;;;;;;5090925;28;20240;-71
2022/11/01 02:29:17;;;;;;;50.25;33.45;;;13.80;99.90;;;;;;4986240;28;20565;-71
2022/11/01 02:32:08;;;;;;;44.25;32.13;;;13.80;99.90;;;;;;5078696;28;20225;-71
2022/11/01 02:34:56;;;;;;;56.78;34.63;;;13.80;99.90;;;;;;5093706;28;20715;-71
2022/11/01 02:37:31;;;;;;;58.47;34.25;;;13.80;99.90;;;;;;5089904;28;20206;-71
2022/11/01 02:40:06;;;;;;;44.53;33.05;;;13.70;99.90;;;;;;5062646;28;20202;-71
2022/11/01 02:42:36;;;;;;;52.50;34.92;;;13.80;99.90;;;;;;5078051;28;20709;-71
2022/11/01 02:45:07;;;;;;;52.22;35.80;;;13.70;99.90;;;;;;5089471;28;20203;-71
2022/11/01 02:47:34;;;;;;;49.58;33.38;;;13.70;99.90;;;;;;5083622;28;20209;-72
2022/11/01 02:50:04;;;;;;;55.35;34.58;;;13.70;99.90;;;;;;5087074;28;20205;-71
2022/11/01 02:52:32;;;;;;;45.45;32.08;;;13.70;99.90;;;;;;5075317;28;20261;-71
2022/11/01 02:54:59;;;;;;;57.75;36.05;;;13.70;99.90;;;;;;5085291;28;20210;-71
2022/11/01 02:57:29;;;;;;;46.05;32.60;;;13.60;99.90;;;;;;5086358;28;20641;-71
2022/11/01 03:00:02;;;;;;;50.80;34.72;;;13.60;99.90;;;;;;5093144;28;20223;-71
2022/11/01 03:02:40;;;;;;;50.13;33.38;;;13.60;99.90;;;;;;5092377;28;20212;-71
2022/11/01 03:05:08;;;;;;;45.15;32.67;;;13.60;99.90;;;;;;5090236;28;20171;-72
2022/11/01 03:07:33;;;;;;;56.20;36.08;;;13.50;99.90;;;;;;5096384;28;20650;-71
2022/11/01 03:10:00;;;;;;;44.88;32.47;;;13.50;99.90;;;;;;5093934;28;20207;-71
2022/11/01 03:12:31;;;;;;;50.60;34.58;;;13.50;99.90;;;;;;5090567;28;20714;-71
2022/11/01 03:15:04;;;;;;;53.72;34.90;;;13.50;99.90;;;;;;5068663;28;20294;-71
2022/11/01 03:17:45;;;;;;;57.47;34.55;;;13.60;99.90;;;;;;5098717;28;20579;-71
2022/11/01 03:20:17;;;;;;;53.30;35.10;;;13.60;99.90;;;;;;5091547;28;20609;-70
2022/11/01 03:22:59;;;;;;;49.33;34.95;;;13.60;99.90;;;;;;5084974;28;20726;-71
2022/11/01 03:25:43;;;;;;;49.85;34.75;;;13.60;99.90;;;;;;5081441;28;20616;-70
2022/11/01 03:28:17;;;;;;;52.17;35.88;;;13.60;99.90;;;;;;5070235;28;20213;-71
2022/11/01 03:31:09;;;;;;;52.47;36.05;;;13.60;99.90;;;;;;5073089;28;20727;-71
2022/11/01 03:33:39;;;;;;;58.97;37.60;;;13.50;99.90;;;;;;5084614;28;20287;-70
2022/11/01 03:36:12;;;;;;;50.35;35.53;;;13.50;99.90;;;;;;5095452;28;20626;-70
2022/11/01 03:38:43;;;;;;;55.35;37.45;;;13.50;99.90;;;;;;5087149;28;20293;-71
2022/11/01 03:41:13;;;;;;;54.58;36.35;;;13.40;99.90;;;;;;5093277;28;20199;-70
2022/11/01 03:43:39;;;;;;;53.58;36.45;;;13.50;99.90;;;;;;5096315;28;20174;-70
2022/11/01 03:46:05;;;;;;;51.07;36.43;;;13.50;99.90;;;;;;5082784;28;20255;-70
2022/11/01 03:48:31;;;;;;;50.20;35.83;;;13.40;99.90;;;;;;5084909;28;20206;-70
2022/11/01 03:50:56;;;;;;;51.20;35.80;;;13.40;99.90;;;;;;5082428;28;20210;-70
2022/11/01 03:53:23;;;;;;;56.15;37.75;;;13.40;99.90;;;;;;5094309;28;20609;-70
2022/11/01 03:55:49;;;;;;;61.97;37.13;;;13.40;99.90;;;;;;5086582;28;20175;-69
2022/11/01 03:58:15;;;;;;;54.92;36.58;;;13.30;99.90;;;;;;5094628;28;20598;-70
2022/11/01 04:00:43;;;;;;;49.70;35.45;;;13.30;99.90;;;;;;5067762;28;20211;-71
2022/11/01 04:03:09;;;;;;;53.92;35.70;;;13.30;99.90;;;;;;5090552;28;20715;-71
2022/11/01 04:05:37;;;;;;;51.13;35.42;;;13.30;99.90;;;;;;5072264;28;20277;-71
2022/11/01 04:08:02;;;;;;;49.88;34.92;;;13.30;99.90;;;;;;5096411;28;20223;-71
2022/11/01 04:10:28;;;;;;;51.40;35.28;;;13.30;99.90;;;;;;5093820;28;20676;-71
2022/11/01 04:12:55;;;;;;;50.47;34.50;;;13.20;99.90;;;;;;5070071;28;20751;-71
2022/11/01 04:21:13;;;;;;;51.92;34.33;;;13.20;99.90;;;;;;5087875;28;20226;-71
2022/11/01 04:23:38;;;;;;;53.72;35.45;;;13.20;99.90;;;;;;5088444;28;20221;-71
2022/11/01 04:26:06;;;;;;;48.28;35.50;;;13.20;99.90;;;;;;5073548;28;20212;-71
2022/11/01 04:28:32;;;;;;;51.45;35.50;;;13.10;99.90;;;;;;5090986;28;20189;-71
2022/11/01 04:30:57;;;;;;;54.38;35.97;;;13.10;99.90;;;;;;5065478;28;20769;-71
2022/11/01 04:33:23;;;;;;;55.80;35.53;;;13.20;99.90;;;;;;5093626;28;20243;-70
2022/11/01 04:35:49;;;;;;;53.27;36.13;;;13.10;99.90;;;;;;5091580;28;20206;-71
2022/11/01 04:38:15;;;;;;;54.27;35.30;;;13.20;99.90;;;;;;5088607;28;20664;-71
2022/11/01 04:40:41;;;;;;;54.72;33.97;;;13.10;99.90;;;;;;5088469;28;20599;-71
2022/11/01 04:43:07;;;;;;;48.83;34.07;;;13.10;99.90;;;;;;5078306;28;20234;-71
2022/11/01 04:45:33;;;;;;;48.23;34.70;;;13.10;99.90;;;;;;5069256;28;20276;-71
2022/11/01 04:48:06;;;;;;;58.25;36.83;;;13.10;99.90;;;;;;5070443;28;20211;-71
2022/11/01 04:50:33;;;;;;;52.47;33.83;;;13.10;99.90;;;;;;5093150;28;20284;-70
2022/11/01 04:52:59;;;;;;;57.83;36.60;;;13.10;99.90;;;;;;5091573;28;20167;-72
2022/11/01 04:55:29;;;;;;;50.50;35.83;;;13.10;99.90;;;;;;5088981;28;20166;-71
2022/11/01 04:57:55;;;;;;;52.60;34.33;;;13.10;99.90;;;;;;5069666;28;20210;-72
2022/11/01 05:00:21;;;;;;;50.47;35.23;;;13.10;99.90;;;;;;5096802;28;20262;-72
2022/11/01 05:02:47;;;;;;;51.33;33.90;;;13.10;99.90;;;;;;5070705;28;20221;-71
2022/11/01 05:05:13;;;;;;;51.23;34.83;;;13.10;99.90;;;;;;5084664;28;20667;-71
2022/11/01 05:07:39;;;;;;;53.43;37.13;;;13.10;99.90;;;;;;5093797;28;20202;-72
2022/11/01 05:10:05;;;;;;;59.72;35.92;;;13.10;99.90;;;;;;5092434;28;20207;-71
2022/11/01 05:12:30;;;;;;;55.10;35.33;;;13.10;99.90;;;;;;5062375;28;20214;-72
2022/11/01 05:14:56;;;;;;;50.90;34.73;;;13.10;99.90;;;;;;5070430;28;20214;-71
2022/11/01 05:17:22;;;;;;;53.20;34.22;;;13.10;99.90;;;;;;5072518;28;20547;-71
2022/11/01 05:19:47;;;;;;;52.75;33.45;;;13.10;99.90;;;;;;5088394;28;20628;-71
2022/11/01 05:22:13;;;;;;;56.80;36.13;;;13.10;99.90;;;;;;5085304;28;20202;-71
2022/11/01 05:24:38;;;;;;;51.07;34.40;;;13.10;99.90;;;;;;5093247;28;20214;-71
2022/11/01 05:27:04;;;;;;;55.25;34.92;;;13.10;99.90;;;;;;5092637;28;20572;-71
2022/11/01 05:29:30;;;;;;;49.97;34.03;;;13.10;99.90;;;;;;5087442;28;20749;-71
2022/11/01 05:31:55;;;;;;;60.72;36.17;;;13.00;99.90;;;;;;5080431;28;20234;-72
2022/11/01 05:34:21;;;;;;;53.65;35.45;;;13.00;99.90;;;;;;5097845;28;20201;-71
2022/11/01 05:36:46;;;;;;;51.60;34.93;;;13.00;99.90;;;;;;5088501;28;20304;-71
2022/11/01 05:39:12;;;;;;;56.00;35.97;;;13.00;99.90;;;;;;5083919;28;20214;-71
2022/11/01 05:41:39;;;;;;;54.33;34.75;;;12.90;99.90;;;;;;5092939;28;20202;-72
2022/11/01 05:44:05;;;;;;;58.30;36.97;;;12.90;99.90;;;;;;5092871;28;20182;-71
2022/11/01 05:46:30;;;;;;;55.80;35.27;;;13.00;99.90;;;;;;5064799;28;20175;-71
2022/11/01 05:48:56;;;;;;;55.67;35.17;;;13.00;99.90;;;;;;5080772;28;20207;-71
2022/11/01 05:51:22;;;;;;;45.40;32.75;;;13.00;99.90;;;;;;5097125;28;20334;-71
2022/11/01 05:53:48;;;;;;;50.93;33.40;;;13.00;99.90;;;;;;5070112;28;20787;-71
2022/11/01 05:56:14;;;;;;;49.28;33.88;;;13.00;99.90;;;;;;5073181;28;20691;-71
2022/11/01 05:58:40;;;;;;;51.57;33.83;;;13.00;99.90;;;;;;5072474;28;20205;-71
2022/11/01 06:01:06;;;;;;;48.23;32.77;;;12.90;99.90;;;;;;5074575;28;20243;-71
2022/11/01 06:03:32;;;;;;;47.40;33.13;;;12.90;99.90;;;;;;5087527;28;20267;-70
2022/11/01 06:05:58;;;;;;;50.72;31.92;;;13.00;99.90;;;;;;5081488;28;20213;-71
2022/11/01 06:08:24;;;;;;;45.10;30.90;;;12.90;99.90;;;;;;5097421;28;20308;-70
2022/11/01 06:10:51;;;;;;;49.42;31.23;;;13.00;99.90;;;;;;5088120;28;20201;-71
2022/11/01 06:13:17;;;;;;;42.30;31.10;;;13.00;99.90;;;;;;5086850;28;20206;-71
2022/11/01 06:15:43;;;;;;;43.07;32.50;;;13.00;99.90;;;;;;5085915;28;20236;-70
2022/11/01 06:18:09;;;;;;;45.10;32.17;;;13.00;99.90;;;;;;5078946;28;20202;-71
2022/11/01 06:20:35;;;;;;;43.17;30.87;;;13.00;99.90;;;;;;5087090;28;20853;-71
2022/11/01 06:23:07;;;;;;;47.63;30.13;;;13.00;99.90;;;;;;5082721;28;20258;-72
2022/11/01 06:25:33;;;;;;;46.30;31.43;;;13.00;99.90;;;;;;5096525;28;20198;-71
2022/11/01 06:27:59;;;;;;;46.23;31.70;;;13.00;99.90;;;;;;5087925;28;20244;-71
2022/11/01 06:30:24;;;;;;;47.00;30.08;;;13.00;99.90;;;;;;5085343;28;20220;-71
2022/11/01 06:32:50;;;;;;;44.33;30.08;;;13.10;99.90;;;;;;5064149;28;20198;-71
2022/11/01 06:35:15;;;;;;;46.03;31.10;;;13.10;99.90;;;;;;5094747;28;20238;-70
2022/11/01 06:37:41;;;;;;;48.43;30.63;;;13.10;99.90;;;;;;5076705;28;20307;-71
2022/11/01 06:40:07;;;;;;;43.40;31.63;;;13.00;99.90;;;;;;5087401;28;20576;-71
2022/11/01 06:42:32;;;;;;;44.05;31.42;;;13.10;99.90;;;;;;5100694;28;20278;-71
2022/11/01 06:44:58;;;;;;;45.37;31.40;;;13.00;99.90;;;;;;5093036;28;20863;-71
2022/11/01 06:47:24;;;;;;;50.80;32.27;;;13.10;99.90;;;;;;5090120;28;20560;-71
2022/11/01 06:49:49;;;;;;;48.13;31.85;;;13.10;99.90;;;;;;5089085;28;20277;-71
2022/11/01 06:52:15;;;;;;;50.67;31.47;;;13.10;99.90;;;;;;5099007;28;20292;-71
2022/11/01 06:54:40;;;;;;;45.27;30.63;;;13.10;99.90;;;;;;5090265;28;20305;-72
2022/11/01 06:57:06;;;;;;;45.35;29.98;;;13.10;99.90;;;;;;5087808;28;20225;-71
2022/11/01 06:59:32;;;;;;;43.78;30.40;;;13.20;99.90;;;;;;5100227;28;20202;-71
2022/11/01 07:01:57;;;;;;;43.38;29.65;;;13.20;99.90;;;;;;5095615;28;20601;-71
2022/11/01 07:04:25;;;;;;;47.00;31.38;;;13.30;99.90;;;;;;5090738;28;20708;-71
2022/11/01 07:06:51;;;;;;;43.80;30.30;;;13.30;99.90;;;;;;5075159;28;20216;-72
2022/11/01 07:09:17;;;;;;;40.85;29.40;;;13.40;99.90;;;;;;5098817;28;20193;-71
2022/11/01 07:11:42;;;;;;;41.92;29.02;;;13.40;99.90;;;;;;5090211;28;20222;-71
2022/11/01 07:14:08;;;;;;;42.47;29.02;;;13.30;99.90;;;;;;5075250;28;20195;-71
2022/11/01 07:16:34;;;;;;;38.35;26.80;;;13.30;99.90;;;;;;5095534;28;21076;-71
2022/11/01 07:18:59;;;;;;;38.47;27.35;;;13.40;99.90;;;;;;5093172;28;20278;-71
2022/11/01 07:21:25;;;;;;;38.00;27.30;;;13.40;99.90;;;;;;5095906;28;20676;-71
2022/11/01 07:23:52;;;;;;;41.30;27.02;;;13.50;99.90;;;;;;5089168;28;20206;-72
2022/11/01 07:26:18;;;;;;;44.75;27.38;;;13.40;99.90;;;;;;5088535;28;20755;-71
2022/11/01 07:28:44;;;;;;;37.08;26.02;;;13.30;99.90;;;;;;5090062;28;20253;-71
2022/11/01 07:31:09;;;;;;;41.03;26.98;;;13.40;99.90;;;;;;5085846;28;20218;-71
2022/11/01 07:33:35;;;;;;;40.05;25.80;;;13.40;99.90;;;;;;5081427;28;20827;-71
2022/11/01 07:36:01;;;;;;;37.55;25.20;;;13.50;99.90;;;;;;5093077;28;20226;-71
2022/11/01 07:38:27;;;;;;;43.70;25.60;;;13.40;99.90;;;;;;5067088;28;20203;-71
2022/11/01 07:40:53;;;;;;;39.28;25.90;;;13.50;99.90;;;;;;5066479;28;20190;-71
2022/11/01 07:43:20;;;;;;;39.50;25.92;;;13.50;99.90;;;;;;5091012;28;20166;-71
2022/11/01 07:45:46;;;;;;;34.53;25.75;;;13.60;99.90;;;;;;5088588;28;20263;-72
2022/11/01 07:48:15;;;;;;;39.67;25.23;;;13.50;99.90;;;;;;5066943;28;20584;-71
2022/11/01 07:50:42;;;;;;;38.67;26.52;;;13.70;99.90;;;;;;5094534;28;20210;-71
2022/11/01 07:53:16;;;;;;;38.60;25.73;;;13.80;99.90;;;;;;5094255;28;20175;-71
2022/11/01 07:55:42;;;;;;;34.38;24.08;;;13.80;99.90;;;;;;5086511;28;20177;-72
2022/11/01 07:58:09;;;;;;;36.53;23.70;;;13.80;99.90;;;;;;5089518;28;20289;-72
2022/11/01 08:00:36;;;;;;;35.42;23.83;;;14.00;99.90;;;;;;5096513;28;20236;-71
2022/11/01 08:03:04;;;;;;;35.28;21.55;;;14.10;99.90;;;;;;5076550;28;20261;-71
2022/11/01 08:05:30;;;;;;;33.35;23.17;;;14.20;99.90;;;;;;5073840;28;20206;-71
2022/11/01 08:07:56;;;;;;;32.40;22.13;;;14.20;99.90;;;;;;5095282;28;20205;-71
2022/11/01 08:10:22;;;;;;;30.85;20.88;;;14.20;99.90;;;;;;5092935;28;20586;-71
2022/11/01 08:12:47;;;;;;;29.55;20.58;;;14.20;99.90;;;;;;5084970;28;20219;-71
2022/11/01 08:15:13;;;;;;;31.92;21.58;;;14.20;99.90;;;;;;5087110;28;20316;-71
2022/11/01 08:17:38;;;;;;;33.40;21.45;;;14.20;99.90;;;;;;5096360;28;20245;-71
2022/11/01 08:20:05;;;;;;;27.73;18.73;;;14.20;99.90;;;;;;5089508;28;20203;-72
2022/11/01 08:22:31;;;;;;;29.63;20.83;;;14.10;99.90;;;;;;5085563;28;20648;-71
2022/11/01 08:24:57;;;;;;;28.38;19.90;;;14.10;99.90;;;;;;5095608;28;20289;-71
2022/11/01 08:27:23;;;;;;;30.10;20.83;;;14.30;99.90;;;;;;5095100;28;20208;-72
2022/11/01 08:29:48;;;;;;;29.40;20.40;;;14.50;99.90;;;;;;5085900;28;20223;-71
2022/11/01 08:32:14;;;;;;;30.08;19.85;;;14.40;99.90;;;;;;5090562;28;20197;-72
2022/11/01 08:34:39;;;;;;;30.50;19.27;;;14.50;99.90;;;;;;5096738;28;20233;-72
2022/11/01 08:37:05;;;;;;;30.83;19.13;;;14.60;99.90;;;;;;5090746;28;20637;-72
2022/11/01 08:39:31;;;;;;;28.00;19.58;;;14.70;99.90;;;;;;5072284;28;20574;-72
2022/11/01 08:41:58;;;;;;;30.40;18.90;;;14.80;99.90;;;;;;5079969;28;20271;-71
2022/11/01 08:44:23;;;;;;;26.90;18.80;;;15.00;99.90;;;;;;5095011;28;20198;-71
2022/11/01 08:46:52;;;;;;;27.02;17.58;;;15.10;99.90;;;;;;5087088;28;20228;-71
2022/11/01 08:49:18;;;;;;;24.98;17.65;;;15.20;99.90;;;;;;5069445;28;20648;-71
2022/11/01 08:51:43;;;;;;;31.83;18.10;;;15.30;99.90;;;;;;5094484;28;20225;-71
2022/11/01 08:54:09;;;;;;;30.65;17.08;;;15.10;99.90;;;;;;5090593;28;20302;-71
2022/11/01 08:56:35;;;;;;;23.77;18.38;;;15.40;99.90;;;;;;5072445;28;20240;-72
2022/11/01 08:59:00;;;;;;;25.48;17.55;;;15.60;99.90;;;;;;5088290;28;20210;-71
2022/11/01 09:01:26;;;;;;;23.70;16.67;;;15.80;99.90;;;;;;5094942;28;20185;-72
2022/11/01 09:03:56;;;;;;;27.10;17.60;;;15.90;99.90;;;;;;5088250;28;20203;-71
2022/11/01 09:06:23;;;;;;;22.40;16.95;;;15.90;99.90;;;;;;5072996;28;20240;-71
2022/11/01 09:08:49;;;;;;;25.70;16.77;;;16.00;99.90;;;;;;5094302;28;20222;-72
2022/11/01 09:11:15;;;;;;;27.33;16.20;;;16.00;99.90;;;;;;5091066;28;20318;-71
2022/11/01 09:13:40;;;;;;;27.10;16.33;;;16.10;99.90;;;;;;5064615;28;20849;-72
2022/11/01 09:16:07;;;;;;;22.90;16.70;;;16.10;99.90;;;;;;5090242;28;20260;-72
2022/11/01 09:18:33;;;;;;;22.67;16.15;;;16.10;99.90;;;;;;5093477;28;20222;-72
2022/11/01 09:20:59;;;;;;;24.80;15.70;;;16.00;99.90;;;;;;5073437;28;20290;-72
2022/11/01 09:23:25;;;;;;;23.25;16.90;;;16.20;99.90;;;;;;5065207;28;20294;-72
2022/11/01 09:25:51;;;;;;;18.85;14.35;;;16.20;99.90;;;;;;5069745;28;20288;-71
2022/11/01 09:28:16;;;;;;;24.15;16.02;;;16.30;99.90;;;;;;5092627;28;20248;-71
2022/11/01 09:30:42;;;;;;;22.73;14.95;;;16.40;99.90;;;;;;5082319;28;20570;-72
2022/11/01 09:33:07;;;;;;;19.92;14.15;;;16.50;99.90;;;;;;5093014;28;20290;-71
2022/11/01 09:35:34;;;;;;;20.50;15.00;;;16.70;99.90;;;;;;5095121;28;20202;-71
2022/11/01 09:38:01;;;;;;;19.73;14.98;;;16.90;99.90;;;;;;5086450;28;20183;-71
2022/11/01 09:40:29;;;;;;;22.90;14.02;;;16.90;99.90;;;;;;5087007;28;20266;-71
2022/11/01 09:42:55;;;;;;;24.30;15.98;;;16.90;99.90;;;;;;5093833;28;20210;-71
2022/11/01 09:45:33;;;;;;;19.55;14.73;;;17.10;99.90;;;;;;5092021;28;20298;-71
2022/11/01 09:48:02;;;;;;;21.60;14.82;;;17.00;99.90;;;;;;5081644;28;20210;-71
2022/11/01 09:50:33;;;;;;;23.20;14.18;;;16.90;99.90;;;;;;5092764;28;20198;-71
2022/11/01 09:53:01;;;;;;;21.15;13.90;;;16.80;99.90;;;;;;5091198;28;20296;-71
2022/11/01 09:56:11;;;;;;;24.02;14.43;;;16.90;99.90;;;;;;5088072;28;20166;-71
2022/11/01 09:58:55;;;;;;;18.20;13.93;;;17.00;99.90;;;;;;5036833;28;20204;-71
2022/11/01 10:01:38;;;;;;;21.23;13.75;;;16.90;99.90;;;;;;5035000;28;20200;-71
2022/11/01 10:04:47;;;;;;;20.70;13.25;;;16.80;99.90;;;;;;5056598;28;20560;-71
2022/11/01 10:07:21;;;;;;;22.63;13.20;;;16.60;99.90;;;;;;5069957;28;20221;-71
2022/11/01 10:10:33;;;;;;;21.63;13.85;;;16.70;99.90;;;;;;5089239;28;20283;-71
2022/11/01 10:13:25;;;;;;;26.30;18.75;;;16.50;99.90;;;;;;5086282;28;20210;-72
2022/11/01 10:15:58;;;;;;;58.55;37.58;;;16.40;99.90;;;;;;5064154;28;20277;-71
2022/11/01 10:18:32;;;;;;;22.50;16.63;;;16.60;99.90;;;;;;5089911;28;20205;-71
2022/11/01 10:21:04;;;;;;;32.47;19.55;;;16.60;99.90;;;;;;5064206;28;20229;-72
2022/11/01 10:23:41;;;;;;;19.67;13.35;;;16.60;99.90;;;;;;5087141;28;20205;-71
2022/11/01 10:26:13;;;;;;;19.02;12.43;;;16.70;99.90;;;;;;5071577;28;20178;-71
2022/11/01 10:29:11;;;;;;;22.83;14.15;;;16.70;99.90;;;;;;5087528;28;20175;-71
2022/11/01 10:31:44;;;;;;;19.30;12.65;;;16.70;99.90;;;;;;5057779;28;20214;-71
2022/11/01 10:34:19;;;;;;;24.67;14.20;;;16.70;99.90;;;;;;5097336;28;20332;-71
2022/11/01 10:36:46;;;;;;;19.15;13.57;;;16.60;99.90;;;;;;5087815;28;20209;-71
2022/11/01 10:39:23;;;;;;;25.50;14.15;;;16.50;99.90;;;;;;5084759;28;20202;-70
2022/11/01 10:41:51;;;;;;;22.63;13.20;;;16.50;99.90;;;;;;5092534;28;20239;-71
2022/11/01 10:44:25;;;;;;;24.25;13.77;;;16.50;99.90;;;;;;5094261;28;20202;-70
2022/11/01 10:46:52;;;;;;;18.83;12.98;;;16.50;99.90;;;;;;5084796;28;20231;-72
2022/11/01 10:49:21;;;;;;;22.67;14.23;;;16.50;99.90;;;;;;5086911;28;20173;-71
2022/11/01 10:51:50;;;;;;;23.00;13.45;;;16.50;99.90;;;;;;5073535;28;20258;-72
2022/11/01 10:54:24;;;;;;;17.95;12.95;;;16.40;99.90;;;;;;5090502;28;20254;-71
2022/11/01 10:56:54;;;;;;;19.40;12.63;;;16.40;99.90;;;;;;5070162;28;20223;-71
2022/11/01 10:59:34;;;;;;;18.73;13.98;;;16.50;99.90;;;;;;5091149;28;20232;-71
2022/11/01 11:02:04;;;;;;;19.98;13.90;;;16.60;99.90;;;;;;5092841;28;20190;-71
2022/11/01 11:04:29;;;;;;;23.67;13.88;;;16.60;99.90;;;;;;5084647;28;20166;-71
2022/11/01 11:06:55;;;;;;;17.67;12.25;;;16.80;99.90;;;;;;5086532;28;20206;-72
2022/11/01 11:09:29;;;;;;;17.88;12.10;;;16.90;99.90;;;;;;5094646;28;20206;-71
2022/11/01 11:12:04;;;;;;;21.65;12.18;;;17.00;99.90;;;;;;5085974;28;20219;-71
2022/11/01 11:14:32;;;;;;;14.70;11.77;;;17.20;99.90;;;;;;5081420;28;20210;-71
2022/11/01 11:16:59;;;;;;;22.05;12.57;;;17.50;99.90;;;;;;5088806;28;20177;-71
2022/11/01 11:19:28;;;;;;;18.92;11.10;;;17.80;99.90;;;;;;5072726;28;20546;-71
2022/11/01 11:21:55;;;;;;;20.15;11.70;;;18.10;99.90;;;;;;5069882;28;20207;-71
2022/11/01 11:24:24;;;;;;;14.38;10.38;;;18.40;99.90;;;;;;5095839;28;20288;-71
2022/11/01 11:26:53;;;;;;;15.63;10.25;;;18.50;99.90;;;;;;5079073;28;20247;-72
2022/11/01 11:29:35;;;;;;;14.85;9.13;;;18.60;99.90;;;;;;5086844;28;20231;-71
2022/11/01 11:32:02;;;;;;;13.88;8.57;;;18.50;99.90;;;;;;5087499;28;20206;-72
2022/11/01 11:34:31;;;;;;;14.82;9.55;;;18.40;99.90;;;;;;5081422;28;20224;-72
2022/11/01 11:36:57;;;;;;;26.23;17.10;;;18.20;99.90;;;;;;5089824;28;20210;-72
2022/11/01 11:39:35;;;;;;;19.20;12.45;;;18.10;99.90;;;;;;5087811;28;20739;-72
2022/11/01 11:42:09;;;;;;;15.27;10.13;;;18.00;99.90;;;;;;5097569;28;20201;-72
2022/11/01 11:44:44;;;;;;;14.30;8.70;;;17.90;99.90;;;;;;5094762;28;20696;-72
2022/11/01 11:47:36;;;;;;;15.50;10.93;;;17.80;99.90;;;;;;5089273;28;20210;-72
2022/11/01 11:50:32;;;;;;;14.20;7.32;;;17.80;99.90;;;;;;5072266;28;20254;-72
2022/11/01 11:53:08;;;;;;;9.95;7.43;;;17.70;99.90;;;;;;5073679;28;20728;-72
2022/11/01 11:55:46;;;;;;;15.15;7.72;;;17.60;99.90;;;;;;5065480;28;20201;-72
2022/11/01 11:58:20;;;;;;;13.43;7.63;;;17.50;99.90;;;;;;5087413;28;20209;-71
2022/11/01 12:00:49;;;;;;;15.07;7.65;;;17.40;99.90;;;;;;5091284;28;20198;-72
2022/11/01 12:03:16;;;;;;;12.93;7.82;;;17.40;99.90;;;;;;5094568;28;20205;-72
2022/11/01 12:05:58;;;;;;;15.20;8.50;;;17.30;99.90;;;;;;5082540;28;20247;-72
2022/11/01 12:08:37;;;;;;;12.68;7.40;;;17.30;99.90;;;;;;5093998;28;20209;-72
2022/11/01 12:11:04;;;;;;;14.38;8.18;;;17.30;99.90;;;;;;5069294;28;20664;-72
2022/11/01 12:13:45;;;;;;;12.07;7.18;;;17.30;99.90;;;;;;5086735;28;20194;-72
2022/11/01 12:16:25;;;;;;;16.38;8.23;;;17.30;99.90;;;;;;5092883;28;20202;-71
2022/11/01 12:18:54;;;;;;;12.00;7.25;;;17.20;99.90;;;;;;5071291;28;20202;-72
2022/11/01 12:21:24;;;;;;;11.20;7.05;;;17.20;99.90;;;;;;5086824;28;20731;-72
2022/11/01 12:23:59;;;;;;;14.05;8.93;;;17.20;99.90;;;;;;5066388;28;20293;-72
2022/11/01 12:26:27;;;;;;;13.77;7.82;;;17.20;99.90;;;;;;5089692;28;20209;-71
2022/11/01 12:29:23;;;;;;;16.10;7.50;;;17.30;99.90;;;;;;5088619;28;20171;-72
2022/11/01 12:31:51;;;;;;;10.88;7.07;;;17.30;99.90;;;;;;5087170;28;20582;-72
2022/11/01 12:34:22;;;;;;;11.93;7.32;;;17.30;99.90;;;;;;5073511;28;20243;-72
2022/11/01 12:36:56;;;;;;;15.13;7.82;;;17.30;99.90;;;;;;5090242;28;20232;-72
2022/11/01 12:39:50;;;;;;;15.57;7.80;;;17.30;99.90;;;;;;5084671;28;20204;-74
2022/11/01 12:42:25;;;;;;;14.32;7.60;;;17.30;99.90;;;;;;5091803;28;20204;-73
2022/11/01 12:45:00;;;;;;;11.48;7.50;;;17.30;99.90;;;;;;5076044;28;20216;-74
2022/11/01 12:47:36;;;;;;;10.82;7.60;;;17.40;99.90;;;;;;5086285;28;20212;-74